Time;durP1;ratioP1;P1;durP2;ratioP2;P2;SDS_P1;SDS_P2;PMS_P1;PMS_P2;Temp;Humidity;BMP_temperature;BMP_pressure;BME280_temperature;BME280_humidity;BME280_pressure;Samples;Min_cycle;Max_cycle;Signal;HPM_P1;HPM_P2
2022/01/19 00:00:59;;;;;;;2.07;1.97;;;18.90;40.60;;;;;;5040268;28;20945;-76
2022/01/19 00:03:25;;;;;;;2.47;2.37;;;18.90;40.60;;;;;;5044786;28;20439;-76
2022/01/19 00:05:51;;;;;;;2.13;2.03;;;18.90;40.70;;;;;;5044192;28;20309;-76
2022/01/19 00:08:20;;;;;;;1.87;1.77;;;18.90;40.60;;;;;;5045171;28;20222;-76
2022/01/19 00:10:47;;;;;;;2.00;1.90;;;18.90;40.70;;;;;;5041908;28;20466;-76
2022/01/19 00:13:13;;;;;;;1.80;1.70;;;18.90;40.60;;;;;;5040231;28;20452;-77
2022/01/19 00:15:38;;;;;;;2.20;2.10;;;18.90;40.70;;;;;;5039396;28;20462;-77
2022/01/19 00:18:04;;;;;;;2.27;2.17;;;18.90;40.70;;;;;;5042435;28;20311;-77
2022/01/19 00:20:32;;;;;;;1.73;1.63;;;18.90;40.70;;;;;;5043057;28;20226;-77
2022/01/19 00:22:59;;;;;;;2.00;1.90;;;18.90;40.60;;;;;;5044374;28;20414;-77
2022/01/19 00:25:24;;;;;;;1.70;1.60;;;18.90;40.70;;;;;;5041594;28;20527;-76
2022/01/19 00:27:50;;;;;;;2.10;2.00;;;18.90;40.60;;;;;;5040198;28;20484;-77
2022/01/19 00:30:16;;;;;;;1.70;1.60;;;18.90;40.70;;;;;;5042440;28;20235;-76
2022/01/19 00:32:42;;;;;;;2.13;2.00;;;18.90;40.70;;;;;;5040751;28;20902;-76
2022/01/19 00:35:09;;;;;;;1.77;1.67;;;18.90;40.60;;;;;;5043721;28;20687;-76
2022/01/19 00:37:35;;;;;;;1.70;1.60;;;18.90;41.40;;;;;;5040137;28;20714;-76
2022/01/19 00:40:02;;;;;;;1.80;1.70;;;18.90;40.70;;;;;;5043849;28;20458;-76
2022/01/19 00:42:27;;;;;;;2.10;2.00;;;18.90;40.60;;;;;;5040798;28;20444;-76
2022/01/19 00:44:53;;;;;;;1.90;1.80;;;18.90;40.60;;;;;;5077464;28;20451;-76
2022/01/19 00:47:19;;;;;;;1.87;1.77;;;18.90;40.60;;;;;;5038919;28;20219;-77
2022/01/19 00:49:45;;;;;;;1.77;1.67;;;18.90;40.60;;;;;;5039818;28;20222;-76
2022/01/19 00:52:11;;;;;;;1.77;1.67;;;18.90;40.70;;;;;;5039680;28;20219;-76
2022/01/19 00:54:37;;;;;;;1.70;1.60;;;18.90;40.70;;;;;;5039430;28;20447;-76
2022/01/19 00:57:03;;;;;;;2.20;2.10;;;18.90;40.60;;;;;;5043296;28;20538;-76
2022/01/19 00:59:29;;;;;;;2.03;1.93;;;18.90;40.70;;;;;;5042453;28;20532;-76
2022/01/19 01:01:54;;;;;;;1.87;1.77;;;18.90;40.70;;;;;;5043126;28;23039;-76
2022/01/19 01:04:20;;;;;;;1.93;1.83;;;18.90;40.70;;;;;;5039097;28;20253;-77
2022/01/19 01:06:46;;;;;;;1.83;1.73;;;18.90;40.60;;;;;;5040735;28;20224;-77
2022/01/19 01:09:11;;;;;;;2.30;2.17;;;18.90;40.70;;;;;;5039644;28;20214;-76
2022/01/19 01:11:46;;;;;;;1.70;1.60;;;18.90;40.70;;;;;;5039240;28;20231;-77
2022/01/19 01:16:58;;;;;;;2.00;1.90;;;18.90;40.70;;;;;;5035859;28;20463;-76
2022/01/19 01:19:24;;;;;;;1.93;1.70;;;18.90;40.70;;;;;;5042478;28;20460;-76
2022/01/19 01:21:50;;;;;;;1.40;1.30;;;18.90;40.70;;;;;;5041253;28;20451;-76
2022/01/19 01:24:15;;;;;;;1.80;1.70;;;18.90;41.50;;;;;;5039385;28;20234;-76
2022/01/19 01:26:41;;;;;;;1.73;1.63;;;18.90;40.70;;;;;;5041355;28;20234;-76
2022/01/19 01:29:07;;;;;;;1.73;1.63;;;18.90;40.70;;;;;;5002772;28;1081233;-76
2022/01/19 01:31:33;;;;;;;2.00;1.90;;;18.90;40.70;;;;;;5042010;28;20219;-76
2022/01/19 01:33:59;;;;;;;1.60;1.50;;;18.90;40.70;;;;;;5037655;28;20481;-76
2022/01/19 01:36:24;;;;;;;1.77;1.67;;;18.90;41.10;;;;;;5040334;28;22294;-76
2022/01/19 01:38:50;;;;;;;2.00;1.80;;;18.90;40.70;;;;;;5045622;28;20238;-76
2022/01/19 01:41:16;;;;;;;1.70;1.60;;;18.90;40.70;;;;;;5038345;28;20222;-76
2022/01/19 01:43:43;;;;;;;1.80;1.70;;;18.90;40.70;;;;;;5040793;28;20227;-76
2022/01/19 01:46:17;;;;;;;1.80;1.70;;;18.90;40.70;;;;;;5040824;28;20242;-76
2022/01/19 01:48:46;;;;;;;1.70;1.60;;;18.90;40.70;;;;;;5040631;28;20435;-75
2022/01/19 01:53:57;;;;;;;1.53;1.43;;;18.90;40.70;;;;;;5039942;28;20471;-76
2022/01/19 01:56:23;;;;;;;1.70;1.60;;;18.90;40.70;;;;;;5044011;28;21028;-76
2022/01/19 01:58:49;;;;;;;1.63;1.53;;;18.90;40.70;;;;;;5042417;28;20554;-76
2022/01/19 02:01:17;;;;;;;1.57;1.47;;;18.80;40.60;;;;;;5040456;28;20449;-75
2022/01/19 02:03:44;;;;;;;1.80;1.70;;;18.90;40.70;;;;;;5039634;28;20460;-75
2022/01/19 02:08:46;;;;;;;1.73;1.63;;;18.80;40.60;;;;;;5037310;28;20459;-75
2022/01/19 02:24:12;;;;;;;1.50;1.40;;;18.80;40.50;;;;;;5039033;28;20437;-75
2022/01/19 02:36:35;;;;;;;1.60;1.50;;;18.80;40.60;;;;;;5042497;28;20419;-75
2022/01/19 02:40:16;;;;;;;1.50;1.40;;;18.80;40.60;;;;;;5040302;28;20490;-73
2022/01/19 02:51:06;;;;;;;1.70;1.60;;;18.80;40.50;;;;;;5042145;28;20447;-75
2022/01/19 02:53:38;;;;;;;1.70;1.60;;;18.80;40.50;;;;;;5039176;28;20510;-76
2022/01/19 02:56:12;;;;;;;1.90;1.80;;;18.80;40.50;;;;;;5040108;28;20974;-76
2022/01/19 02:58:51;;;;;;;1.50;1.40;;;18.80;40.50;;;;;;5040305;28;20832;-76
2022/01/19 03:09:26;;;;;;;3.57;1.37;;;18.80;40.50;;;;;;5039200;28;21033;-76
2022/01/19 03:11:53;;;;;;;1.37;1.27;;;18.80;40.50;;;;;;5038588;28;20820;-76
2022/01/19 03:14:19;;;;;;;1.83;1.73;;;18.80;40.40;;;;;;5035758;28;20459;-76
2022/01/19 03:16:45;;;;;;;1.40;1.30;;;18.80;40.40;;;;;;5040181;28;20440;-76
2022/01/19 03:19:12;;;;;;;1.73;1.63;;;18.80;40.40;;;;;;5039180;28;20430;-76
2022/01/19 03:21:39;;;;;;;1.60;1.50;;;18.80;40.40;;;;;;5037506;28;20427;-76
2022/01/19 03:24:05;;;;;;;1.60;1.50;;;18.80;40.40;;;;;;5038990;28;20467;-76
2022/01/19 03:26:31;;;;;;;1.47;1.37;;;18.80;40.30;;;;;;5041302;28;20452;-75
2022/01/19 03:28:57;;;;;;;1.60;1.50;;;18.80;40.40;;;;;;5038205;28;20431;-76
2022/01/19 03:31:23;;;;;;;1.70;1.60;;;18.80;40.30;;;;;;5038885;28;20823;-75
2022/01/19 03:33:49;;;;;;;1.60;1.50;;;18.80;40.20;;;;;;5041650;28;20210;-76
2022/01/19 03:36:15;;;;;;;1.50;1.40;;;18.80;40.30;;;;;;5040851;28;20219;-76
2022/01/19 03:38:40;;;;;;;1.60;1.50;;;18.80;40.30;;;;;;5041782;28;20448;-75
2022/01/19 03:41:06;;;;;;;1.70;1.60;;;18.80;40.20;;;;;;5039154;28;20222;-76
2022/01/19 03:43:32;;;;;;;1.80;1.70;;;18.80;40.30;;;;;;5042556;28;20254;-76
2022/01/19 03:45:59;;;;;;;1.70;1.60;;;18.80;40.20;;;;;;5039026;28;20230;-76
2022/01/19 03:51:04;;;;;;;1.80;1.70;;;18.80;40.20;;;;;;5035464;28;20415;-76
2022/01/19 03:53:30;;;;;;;1.77;1.67;;;18.80;40.20;;;;;;5038674;28;20503;-76
2022/01/19 03:55:57;;;;;;;1.70;1.60;;;18.80;41.00;;;;;;5038520;28;20427;-76
2022/01/19 03:58:22;;;;;;;1.50;1.40;;;18.80;40.20;;;;;;5036307;28;20469;-76
2022/01/19 04:00:53;;;;;;;1.53;1.43;;;18.80;40.20;;;;;;5039916;28;20445;-76
2022/01/19 04:03:23;;;;;;;1.67;1.57;;;18.80;40.20;;;;;;5037395;28;20218;-76
2022/01/19 04:08:34;;;;;;;1.50;1.40;;;18.80;40.20;;;;;;5002964;28;20480;-76
2022/01/19 04:11:00;;;;;;;1.67;1.57;;;18.80;40.20;;;;;;5020016;28;20842;-76
2022/01/19 04:13:57;;;;;;;1.50;1.40;;;18.80;40.20;;;;;;5020745;28;20223;-76
2022/01/19 04:16:11;;;;;;;1.77;1.67;;;18.80;40.20;;;;;;5029727;28;20230;-76
2022/01/19 04:18:37;;;;;;;1.80;1.70;;;18.80;40.20;;;;;;5038715;28;20475;-84
2022/01/19 04:21:02;;;;;;;1.80;1.70;;;18.80;40.20;;;;;;5039950;28;20223;-78
2022/01/19 04:23:28;;;;;;;1.40;1.30;;;18.80;40.20;;;;;;5038901;28;20245;-78
2022/01/19 04:25:54;;;;;;;1.50;1.40;;;18.80;40.20;;;;;;5043290;28;20672;-78
2022/01/19 04:28:20;;;;;;;1.70;1.60;;;18.80;40.20;;;;;;5036824;28;20679;-78
2022/01/19 04:30:46;;;;;;;1.83;1.73;;;18.80;40.10;;;;;;5042357;28;20231;-77
2022/01/19 04:33:21;;;;;;;2.70;1.30;;;18.80;40.20;;;;;;5043008;28;20219;-77
2022/01/19 04:35:52;;;;;;;1.90;1.77;;;18.80;40.20;;;;;;5037768;28;20512;-77
2022/01/19 04:44:09;;;;;;;1.70;1.60;;;18.80;40.90;;;;;;5039999;28;20473;-77
2022/01/19 05:01:36;;;;;;;1.40;1.30;;;18.80;40.30;;;;;;5040167;28;20452;-76
2022/01/19 05:03:25;;;;;;;1.50;1.40;;;18.80;40.30;;;;;;5040480;28;20480;-78
2022/01/19 05:06:09;;;;;;;1.50;1.40;;;18.80;40.30;;;;;;5039394;28;20473;-74
2022/01/19 05:14:03;;;;;;;1.90;1.80;;;18.80;40.30;;;;;;5039892;28;20910;-81
2022/01/19 05:16:29;;;;;;;2.10;1.90;;;18.70;40.20;;;;;;5041748;28;20460;-81
2022/01/19 05:18:55;;;;;;;1.90;1.80;;;18.80;40.30;;;;;;5040305;28;23569;-82
2022/01/19 05:21:21;;;;;;;1.60;1.50;;;18.80;40.20;;;;;;5041959;28;20305;-80
2022/01/19 05:23:46;;;;;;;1.43;1.33;;;18.80;40.30;;;;;;5042992;28;20313;-80
2022/01/19 05:26:13;;;;;;;1.47;1.37;;;18.80;40.20;;;;;;5065375;28;20218;-80
2022/01/19 05:28:39;;;;;;;1.50;1.40;;;18.80;40.30;;;;;;5040469;28;20464;-80
2022/01/19 05:31:05;;;;;;;1.30;1.20;;;18.80;40.30;;;;;;5041720;28;20675;-80
2022/01/19 05:33:30;;;;;;;1.50;1.40;;;18.80;40.20;;;;;;5040472;28;20446;-80
2022/01/19 05:35:56;;;;;;;1.87;1.77;;;18.80;40.20;;;;;;5074901;28;20288;-80
2022/01/19 05:38:22;;;;;;;1.60;1.50;;;18.90;40.30;;;;;;5039747;28;20239;-77
2022/01/19 05:40:48;;;;;;;1.90;1.80;;;18.80;40.20;;;;;;5042988;28;20581;-76
2022/01/19 05:43:14;;;;;;;1.60;1.50;;;18.80;40.20;;;;;;5035851;28;20716;-77
2022/01/19 05:45:39;;;;;;;1.70;1.60;;;18.80;40.20;;;;;;5040572;28;20764;-77
2022/01/19 05:48:07;;;;;;;1.50;1.40;;;18.90;40.30;;;;;;5041098;28;20444;-79
2022/01/19 05:50:33;;;;;;;1.40;1.30;;;18.90;40.30;;;;;;5037431;28;20238;-78
2022/01/19 05:52:59;;;;;;;2.00;1.90;;;18.90;40.20;;;;;;5042019;28;20452;-77
2022/01/19 05:55:24;;;;;;;1.50;1.40;;;18.90;40.20;;;;;;5038904;28;20203;-78
2022/01/19 05:57:50;;;;;;;1.80;1.63;;;18.90;40.20;;;;;;5037999;28;20644;-79
2022/01/19 06:00:16;;;;;;;1.60;1.50;;;18.90;40.10;;;;;;5037616;28;20306;-78
2022/01/19 06:02:41;;;;;;;1.50;1.40;;;19.00;40.10;;;;;;5041839;28;20294;-80
2022/01/19 06:05:07;;;;;;;1.50;1.40;;;19.00;40.10;;;;;;5039838;28;20694;-80
2022/01/19 06:07:41;;;;;;;1.50;1.40;;;19.00;40.00;;;;;;5041152;28;20223;-79
2022/01/19 06:10:10;;;;;;;1.50;1.40;;;19.00;39.90;;;;;;5040490;28;20447;-82
2022/01/19 06:12:36;;;;;;;1.63;1.53;;;19.00;39.90;;;;;;5037970;28;21000;-82
2022/01/19 06:15:03;;;;;;;1.50;1.40;;;19.10;40.00;;;;;;5040393;28;20452;-82
2022/01/19 06:17:29;;;;;;;1.93;1.40;;;19.10;40.00;;;;;;5040323;28;20998;-81
2022/01/19 06:19:55;;;;;;;1.60;1.50;;;19.10;40.00;;;;;;5038859;28;20457;-81
2022/01/19 06:22:21;;;;;;;1.57;1.47;;;19.10;40.00;;;;;;5044256;28;20234;-80
2022/01/19 06:24:48;;;;;;;1.87;1.27;;;19.10;40.00;;;;;;5039846;28;20222;-76
2022/01/19 06:27:14;;;;;;;1.70;1.60;;;19.10;40.00;;;;;;5038679;28;20794;-78
2022/01/19 06:29:40;;;;;;;1.70;1.60;;;19.10;39.90;;;;;;5038590;28;20829;-77
2022/01/19 06:32:06;;;;;;;1.50;1.40;;;19.10;40.00;;;;;;5038708;28;20866;-77
2022/01/19 06:34:32;;;;;;;1.70;1.60;;;19.10;40.00;;;;;;5039743;28;20314;-76
2022/01/19 06:36:58;;;;;;;1.70;1.60;;;19.10;40.00;;;;;;5032655;28;20548;-79
2022/01/19 06:39:24;;;;;;;1.70;1.60;;;19.10;40.10;;;;;;5041671;28;20227;-75
2022/01/19 06:41:49;;;;;;;3.67;1.50;;;19.10;40.00;;;;;;5039564;28;20694;-77
2022/01/19 06:44:16;;;;;;;1.60;1.50;;;19.10;40.00;;;;;;5038473;28;20284;-77
2022/01/19 06:46:45;;;;;;;1.60;1.50;;;19.10;40.10;;;;;;5039007;28;20258;-77
2022/01/19 06:49:11;;;;;;;3.87;1.60;;;19.10;40.00;;;;;;5030206;28;20531;-76
2022/01/19 06:51:37;;;;;;;1.50;1.40;;;19.10;40.10;;;;;;5033416;28;20561;-74
2022/01/19 06:54:03;;;;;;;1.67;1.57;;;19.10;40.10;;;;;;5044457;28;20793;-76
2022/01/19 06:56:29;;;;;;;1.60;1.50;;;19.10;40.10;;;;;;5039184;28;21026;-76
2022/01/19 06:58:54;;;;;;;1.70;1.60;;;19.10;40.10;;;;;;5039723;28;20710;-76
2022/01/19 07:01:20;;;;;;;1.43;1.33;;;19.10;40.10;;;;;;5039372;28;20217;-76
2022/01/19 07:03:46;;;;;;;1.53;1.43;;;19.10;40.10;;;;;;5039100;28;20317;-76
2022/01/19 07:06:11;;;;;;;1.77;1.67;;;19.10;40.10;;;;;;5041290;28;20210;-76
2022/01/19 07:08:41;;;;;;;1.90;1.80;;;19.10;40.10;;;;;;5035896;28;20237;-78
2022/01/19 07:11:07;;;;;;;1.83;1.73;;;19.10;40.10;;;;;;5039537;28;20223;-79
2022/01/19 07:13:32;;;;;;;2.50;1.67;;;19.10;40.10;;;;;;5037182;28;20447;-82
2022/01/19 07:15:58;;;;;;;1.90;1.80;;;19.10;40.20;;;;;;5032219;28;20340;-79
2022/01/19 07:18:24;;;;;;;1.70;1.60;;;19.10;40.20;;;;;;5035398;28;20460;-78
2022/01/19 07:20:49;;;;;;;1.50;1.40;;;19.10;40.20;;;;;;5043797;28;20553;-78
2022/01/19 07:23:15;;;;;;;1.50;1.40;;;19.10;40.10;;;;;;5039868;28;20223;-78
2022/01/19 07:25:41;;;;;;;1.60;1.50;;;19.10;40.10;;;;;;5041835;28;20226;-78
2022/01/19 07:28:10;;;;;;;1.50;1.40;;;19.10;40.10;;;;;;5038579;28;20279;-77
2022/01/19 07:30:36;;;;;;;1.70;1.60;;;19.10;40.10;;;;;;5040231;28;20227;-76
2022/01/19 07:33:02;;;;;;;1.80;1.70;;;19.10;40.10;;;;;;5038304;28;20458;-77
2022/01/19 07:35:28;;;;;;;1.30;1.20;;;19.10;40.20;;;;;;5037226;28;20281;-75
2022/01/19 07:37:53;;;;;;;1.80;1.70;;;19.10;40.10;;;;;;5038831;28;20237;-76
2022/01/19 07:40:19;;;;;;;1.47;1.37;;;19.10;40.10;;;;;;5040831;28;20222;-78
2022/01/19 07:42:46;;;;;;;1.50;1.40;;;19.10;40.20;;;;;;5039006;28;20320;-77
2022/01/19 07:45:11;;;;;;;1.70;1.60;;;19.10;40.20;;;;;;5038533;28;20422;-76
2022/01/19 07:47:37;;;;;;;1.40;1.30;;;19.10;40.10;;;;;;5041333;28;20782;-77
2022/01/19 07:50:04;;;;;;;1.60;1.50;;;19.10;40.10;;;;;;5037256;28;20223;-76
2022/01/19 07:52:30;;;;;;;1.50;1.40;;;19.10;40.20;;;;;;5036447;28;20673;-77
2022/01/19 07:54:56;;;;;;;1.43;1.33;;;19.10;40.20;;;;;;5037022;28;20991;-77
2022/01/19 07:57:21;;;;;;;1.57;1.47;;;19.10;40.20;;;;;;5042820;28;20223;-76
2022/01/19 07:59:47;;;;;;;1.63;1.53;;;19.10;40.20;;;;;;5046425;28;20587;-76
2022/01/19 08:02:13;;;;;;;1.60;1.50;;;19.10;40.20;;;;;;5042123;28;20218;-75
2022/01/19 08:04:40;;;;;;;2.47;1.50;;;19.10;40.20;;;;;;5044841;28;20282;-75
2022/01/19 08:07:05;;;;;;;1.43;1.33;;;19.10;40.20;;;;;;5045140;28;20261;-75
2022/01/19 08:09:31;;;;;;;1.70;1.60;;;19.10;40.10;;;;;;5041388;28;20932;-78
2022/01/19 08:11:57;;;;;;;1.50;1.40;;;19.10;40.10;;;;;;5041517;28;20222;-81
2022/01/19 08:14:24;;;;;;;1.53;1.43;;;19.10;40.20;;;;;;5043964;28;20231;-79
2022/01/19 08:16:54;;;;;;;1.40;1.30;;;19.10;40.20;;;;;;5043148;28;20710;-79
2022/01/19 08:19:20;;;;;;;1.60;1.50;;;19.10;40.10;;;;;;5044698;28;20486;-78
2022/01/19 08:21:46;;;;;;;1.57;1.47;;;19.10;40.20;;;;;;5041103;28;20561;-77
2022/01/19 08:24:12;;;;;;;1.40;1.30;;;19.10;40.20;;;;;;5039309;28;20961;-77
2022/01/19 08:26:38;;;;;;;1.50;1.40;;;19.10;40.20;;;;;;5042729;28;20289;-77
2022/01/19 08:29:05;;;;;;;1.40;1.30;;;19.10;40.10;;;;;;5040910;28;20651;-76
2022/01/19 08:31:31;;;;;;;1.50;1.40;;;19.10;40.20;;;;;;5042392;28;20448;-76
2022/01/19 08:33:57;;;;;;;1.53;1.43;;;19.10;40.10;;;;;;5037580;28;20463;-76
2022/01/19 08:36:23;;;;;;;1.30;1.20;;;19.10;40.20;;;;;;5043472;28;20887;-76
2022/01/19 08:38:49;;;;;;;1.50;1.40;;;19.10;40.20;;;;;;5040556;28;20782;-76
2022/01/19 08:41:14;;;;;;;2.60;1.50;;;19.10;40.10;;;;;;5043895;28;20483;-75
2022/01/19 08:43:40;;;;;;;1.40;1.30;;;19.10;40.20;;;;;;5044154;28;20257;-75
2022/01/19 08:46:06;;;;;;;1.40;1.30;;;19.10;40.20;;;;;;5038395;28;20226;-81
2022/01/19 08:48:31;;;;;;;1.30;1.20;;;19.10;40.20;;;;;;5042860;28;20209;-80
2022/01/19 08:50:57;;;;;;;1.70;1.60;;;19.10;40.10;;;;;;5041974;28;20237;-79
2022/01/19 08:53:22;;;;;;;1.40;1.30;;;19.10;40.20;;;;;;5041937;28;20225;-78
2022/01/19 08:55:49;;;;;;;1.50;1.40;;;19.10;40.20;;;;;;5040622;28;20687;-78
2022/01/19 08:58:15;;;;;;;1.70;1.50;;;19.10;40.20;;;;;;5044333;28;20257;-77
2022/01/19 09:00:44;;;;;;;1.40;1.30;;;19.10;40.10;;;;;;5041493;28;20458;-76
2022/01/19 09:03:10;;;;;;;1.37;1.27;;;19.10;40.10;;;;;;5040615;28;20949;-76
2022/01/19 09:05:37;;;;;;;1.43;1.33;;;19.10;40.20;;;;;;5039330;28;20434;-76
2022/01/19 09:08:03;;;;;;;1.87;1.33;;;19.10;40.20;;;;;;5073327;28;21040;-76
2022/01/19 09:10:29;;;;;;;1.53;1.43;;;19.10;40.20;;;;;;5042468;28;20425;-76
2022/01/19 09:12:55;;;;;;;1.40;1.30;;;19.10;40.20;;;;;;5044601;28;20552;-76
2022/01/19 09:15:23;;;;;;;1.27;1.17;;;19.10;40.10;;;;;;5041290;28;20456;-75
2022/01/19 09:17:49;;;;;;;1.93;1.83;;;19.10;40.20;;;;;;5040395;28;20891;-75
2022/01/19 09:20:16;;;;;;;1.70;1.60;;;19.10;40.10;;;;;;5040582;28;20801;-75
2022/01/19 09:22:42;;;;;;;1.20;1.10;;;19.10;40.10;;;;;;5039002;28;20798;-75
2022/01/19 09:25:09;;;;;;;1.30;1.20;;;19.10;40.20;;;;;;5043476;28;20426;-76
2022/01/19 09:27:38;;;;;;;1.40;1.30;;;19.10;40.20;;;;;;5040636;28;20222;-75
2022/01/19 09:30:05;;;;;;;1.30;1.20;;;19.10;40.20;;;;;;5042434;28;20447;-75
2022/01/19 09:32:31;;;;;;;1.30;1.20;;;19.10;40.10;;;;;;5042564;28;20427;-75
2022/01/19 09:35:06;;;;;;;2.03;1.40;;;19.10;40.10;;;;;;5039812;28;20430;-75
2022/01/19 09:37:32;;;;;;;1.40;1.30;;;19.10;40.20;;;;;;5042219;28;20254;-75
2022/01/19 09:39:58;;;;;;;1.30;1.20;;;19.10;40.20;;;;;;5028241;28;20426;-75
2022/01/19 09:42:24;;;;;;;1.20;1.10;;;19.10;40.20;;;;;;5058833;28;20868;-75
2022/01/19 09:44:50;;;;;;;1.40;1.30;;;19.10;40.20;;;;;;5043042;28;20297;-75
2022/01/19 09:47:15;;;;;;;1.40;1.30;;;19.10;40.20;;;;;;5040133;28;20227;-74
2022/01/19 09:49:42;;;;;;;1.53;1.43;;;19.10;40.20;;;;;;5038588;28;20246;-75
2022/01/19 09:52:08;;;;;;;1.50;1.40;;;19.00;40.10;;;;;;5036875;28;20242;-75
2022/01/19 09:54:34;;;;;;;1.40;1.30;;;19.00;40.20;;;;;;5041328;28;21147;-75
2022/01/19 09:57:01;;;;;;;1.40;1.30;;;19.10;40.20;;;;;;5045549;28;20256;-75
2022/01/19 09:59:27;;;;;;;1.50;1.40;;;19.00;40.10;;;;;;5040719;28;20569;-75
2022/01/19 10:01:55;;;;;;;1.40;1.30;;;19.00;40.20;;;;;;5043471;28;20433;-75
2022/01/19 10:04:29;;;;;;;1.30;1.20;;;19.10;40.30;;;;;;5036206;28;20219;-76
2022/01/19 10:07:17;;;;;;;1.40;1.30;;;19.10;40.30;;;;;;5040486;28;20969;-75
2022/01/19 10:09:54;;;;;;;1.53;1.43;;;19.00;40.10;;;;;;5039951;28;20465;-75
2022/01/19 10:18:21;;;;;;;1.27;1.17;;;19.00;40.10;;;;;;5034841;28;21032;-76
2022/01/19 10:21:05;;;;;;;1.40;1.30;;;19.00;40.20;;;;;;5041604;28;20497;-75
2022/01/19 10:23:36;;;;;;;1.33;1.23;;;19.00;40.10;;;;;;5040238;28;20823;-74
2022/01/19 10:26:08;;;;;;;1.87;1.30;;;19.00;40.20;;;;;;5038566;28;20433;-76
2022/01/19 10:28:58;;;;;;;1.40;1.30;;;19.00;40.10;;;;;;5038076;28;20923;-81
2022/01/19 10:31:25;;;;;;;1.60;1.50;;;19.00;40.10;;;;;;5034662;28;20867;-82
2022/01/19 10:34:15;;;;;;;1.00;1.00;;;19.00;40.10;;;;;;5036171;28;20451;-79
2022/01/19 10:36:55;;;;;;;1.53;1.43;;;19.00;40.10;;;;;;5017907;28;20461;-72
2022/01/19 10:39:23;;;;;;;1.30;1.20;;;19.00;40.10;;;;;;5020031;28;20552;-82
2022/01/19 10:42:10;;;;;;;2.03;1.60;;;19.00;40.10;;;;;;5037468;28;21036;-81
2022/01/19 10:44:41;;;;;;;1.30;1.20;;;19.00;40.10;;;;;;5037681;28;20427;-78
2022/01/19 10:47:07;;;;;;;1.40;1.30;;;19.00;40.10;;;;;;5040758;28;20426;-78
2022/01/19 10:49:52;;;;;;;1.40;1.30;;;19.00;40.10;;;;;;5036995;28;20452;-78
2022/01/19 10:52:39;;;;;;;1.30;1.20;;;19.00;40.10;;;;;;5038587;28;20221;-75
2022/01/19 10:55:13;;;;;;;1.20;1.10;;;19.00;40.10;;;;;;5041296;28;20422;-78
2022/01/19 10:57:42;;;;;;;1.30;1.20;;;19.00;40.10;;;;;;5038724;28;20471;-77
2022/01/19 11:00:14;;;;;;;1.20;1.10;;;19.00;40.30;;;;;;5036891;28;20441;-76
2022/01/19 11:02:40;;;;;;;1.30;1.20;;;19.00;40.10;;;;;;5038302;28;20483;-75
2022/01/19 11:05:06;;;;;;;1.23;1.10;;;19.00;40.10;;;;;;5038546;28;20438;-75
2022/01/19 11:07:32;;;;;;;1.33;1.23;;;19.00;40.10;;;;;;5038190;28;20455;-78
2022/01/19 11:10:07;;;;;;;1.73;1.23;;;19.00;40.10;;;;;;5040861;28;20493;-77
2022/01/19 11:12:39;;;;;;;1.40;1.10;;;19.00;40.10;;;;;;5039246;28;20226;-73
2022/01/19 11:15:06;;;;;;;1.57;1.47;;;19.00;40.20;;;;;;5037362;28;20419;-74
2022/01/19 11:17:33;;;;;;;1.50;1.40;;;19.00;40.10;;;;;;5038103;28;20466;-73
2022/01/19 11:20:07;;;;;;;1.30;1.20;;;19.00;40.10;;;;;;5036801;28;20994;-75
2022/01/19 11:22:35;;;;;;;1.53;1.30;;;19.00;40.10;;;;;;5040582;28;20447;-75
2022/01/19 11:25:03;;;;;;;1.50;1.40;;;19.00;40.20;;;;;;5037824;28;20448;-75
2022/01/19 11:27:45;;;;;;;3.80;1.40;;;19.00;40.20;;;;;;5035815;28;20431;-74
2022/01/19 11:30:19;;;;;;;1.30;1.20;;;19.00;40.20;;;;;;5020678;28;20501;-74
2022/01/19 11:33:12;;;;;;;1.97;1.30;;;19.00;40.20;;;;;;5022529;28;20464;-70
2022/01/19 11:35:41;;;;;;;1.27;1.17;;;19.00;40.20;;;;;;5023030;28;20817;-73
2022/01/19 11:38:34;;;;;;;1.83;1.30;;;19.00;40.20;;;;;;5021002;28;20464;-73
2022/01/19 11:41:02;;;;;;;1.30;1.20;;;19.00;40.20;;;;;;5021883;28;20549;-73
2022/01/19 11:43:30;;;;;;;1.40;1.30;;;19.00;40.20;;;;;;5044541;28;20596;-72
2022/01/19 11:45:58;;;;;;;3.27;1.30;;;19.00;40.20;;;;;;5042693;28;21004;-72
2022/01/19 11:48:28;;;;;;;1.30;1.20;;;18.90;40.10;;;;;;5043067;28;20422;-71
2022/01/19 11:51:06;;;;;;;3.27;1.20;;;18.90;40.10;;;;;;5044378;28;20459;-71
2022/01/19 11:54:07;;;;;;;1.43;1.30;;;18.90;40.10;;;;;;5041889;28;20498;-72
2022/01/19 11:56:58;;;;;;;1.70;1.60;;;19.00;40.20;;;;;;5033161;28;20443;-72
2022/01/19 11:59:44;;;;;;;1.90;1.30;;;18.90;40.10;;;;;;5045605;28;20811;-70
2022/01/19 12:02:24;;;;;;;1.40;1.30;;;18.90;40.20;;;;;;5043636;28;20429;-72
2022/01/19 12:04:58;;;;;;;1.30;1.20;;;18.90;40.20;;;;;;5042034;28;20487;-72
2022/01/19 12:08:01;;;;;;;1.30;1.20;;;18.90;40.20;;;;;;5045334;28;20845;-71
2022/01/19 12:10:37;;;;;;;1.20;1.10;;;19.00;40.30;;;;;;5002327;28;20420;-71
2022/01/19 12:16:12;;;;;;;1.60;1.20;;;18.90;40.10;;;;;;5043289;28;20418;-72
2022/01/19 12:19:06;;;;;;;1.40;1.20;;;18.90;40.20;;;;;;5043686;28;20434;-71
2022/01/19 12:21:32;;;;;;;1.50;1.40;;;18.90;40.20;;;;;;5045053;28;20817;-72
2022/01/19 12:24:26;;;;;;;1.37;1.27;;;18.90;40.20;;;;;;5042857;28;20456;-71
2022/01/19 12:27:05;;;;;;;1.33;1.23;;;18.90;40.20;;;;;;5040288;28;20237;-70
2022/01/19 12:29:34;;;;;;;1.20;1.10;;;18.90;40.20;;;;;;5043586;28;21014;-70
2022/01/19 12:32:15;;;;;;;1.40;1.30;;;18.90;40.20;;;;;;5042685;28;20471;-71
2022/01/19 12:34:51;;;;;;;1.20;1.10;;;18.90;40.20;;;;;;5041819;28;20475;-71
2022/01/19 12:37:44;;;;;;;1.33;1.23;;;18.90;40.20;;;;;;5041372;28;20451;-71
2022/01/19 12:40:12;;;;;;;1.37;1.27;;;18.90;40.20;;;;;;5039616;28;20423;-70
2022/01/19 12:42:57;;;;;;;8.57;1.47;;;18.90;40.20;;;;;;5042171;28;20497;-70
2022/01/19 12:45:31;;;;;;;1.20;1.10;;;18.90;40.20;;;;;;5044704;28;20797;-71
2022/01/19 12:47:59;;;;;;;1.27;1.17;;;18.90;40.20;;;;;;5045309;28;20459;-71
2022/01/19 12:50:28;;;;;;;1.53;1.30;;;18.90;40.20;;;;;;5039907;28;20551;-71
2022/01/19 12:52:59;;;;;;;1.40;1.30;;;18.90;40.20;;;;;;5041398;28;20487;-71
2022/01/19 12:55:28;;;;;;;1.40;1.30;;;18.90;40.20;;;;;;5042434;28;20771;-71
2022/01/19 12:57:56;;;;;;;1.30;1.20;;;18.90;40.20;;;;;;5039194;28;20442;-71
2022/01/19 13:00:26;;;;;;;1.40;1.30;;;18.90;40.20;;;;;;5041853;28;20410;-71
2022/01/19 13:02:51;;;;;;;1.83;1.20;;;18.90;40.20;;;;;;5046190;28;20516;-70
2022/01/19 13:05:20;;;;;;;1.93;1.20;;;18.90;40.20;;;;;;5043664;28;20538;-71
2022/01/19 13:07:54;;;;;;;3.77;1.20;;;18.90;40.20;;;;;;5041201;28;20625;-71
2022/01/19 13:10:44;;;;;;;2.17;1.33;;;18.90;40.20;;;;;;5041849;28;20583;-71
2022/01/19 13:13:25;;;;;;;1.40;1.30;;;18.90;40.10;;;;;;5042388;28;20449;-71
2022/01/19 13:15:55;;;;;;;2.10;1.50;;;18.90;40.10;;;;;;5040690;28;20535;-70
2022/01/19 13:18:38;;;;;;;1.20;1.10;;;18.90;40.10;;;;;;5040577;28;20532;-70
2022/01/19 13:21:11;;;;;;;2.80;1.30;;;19.00;40.20;;;;;;5042650;28;20451;-70
2022/01/19 13:23:54;;;;;;;1.30;1.20;;;18.90;40.10;;;;;;5043329;28;20452;-71
2022/01/19 13:26:21;;;;;;;2.13;1.30;;;18.90;40.10;;;;;;5043275;28;20453;-75
2022/01/19 13:28:46;;;;;;;1.50;1.40;;;18.90;40.10;;;;;;5046876;28;20508;-73
2022/01/19 13:31:18;;;;;;;1.50;1.23;;;19.00;40.10;;;;;;5038793;28;20479;-73
2022/01/19 13:34:02;;;;;;;1.30;1.20;;;19.00;40.20;;;;;;5072848;28;20237;-73
2022/01/19 13:36:34;;;;;;;1.27;1.17;;;19.00;40.10;;;;;;5039313;28;20478;-72
2022/01/19 13:39:00;;;;;;;1.20;1.07;;;19.00;40.10;;;;;;5041891;28;20460;-72
2022/01/19 13:41:26;;;;;;;1.50;1.40;;;19.00;40.20;;;;;;5048145;28;20443;-72
2022/01/19 13:43:53;;;;;;;1.40;1.30;;;19.00;40.20;;;;;;5040899;28;20580;-72
2022/01/19 13:46:28;;;;;;;1.40;1.20;;;19.00;40.10;;;;;;5040822;28;20215;-72
2022/01/19 13:49:02;;;;;;;1.57;1.40;;;19.00;40.20;;;;;;5040603;28;20417;-71
2022/01/19 13:51:30;;;;;;;1.53;1.20;;;19.00;40.20;;;;;;5038480;28;20960;-72
2022/01/19 13:54:00;;;;;;;2.40;1.20;;;19.00;40.10;;;;;;5040208;28;20763;-72
2022/01/19 13:56:32;;;;;;;2.20;1.60;;;19.00;40.10;;;;;;5045549;28;20422;-71
2022/01/19 13:59:00;;;;;;;1.40;1.20;;;19.00;40.20;;;;;;5040730;28;20941;-71
2022/01/19 14:02:00;;;;;;;1.93;1.13;;;19.00;40.10;;;;;;5041655;28;20431;-73
2022/01/19 14:04:29;;;;;;;2.20;1.20;;;19.00;40.10;;;;;;5042842;28;20467;-73
2022/01/19 14:07:06;;;;;;;1.30;1.20;;;19.00;40.20;;;;;;5043035;28;20447;-73
2022/01/19 14:09:34;;;;;;;1.30;1.20;;;19.00;40.20;;;;;;5038704;28;20449;-73
2022/01/19 14:12:08;;;;;;;1.67;1.57;;;19.00;40.20;;;;;;5037385;28;20452;-72
2022/01/19 14:14:39;;;;;;;1.50;1.40;;;19.00;40.50;;;;;;5055510;28;20928;-73
2022/01/19 14:17:09;;;;;;;1.40;1.30;;;19.00;40.20;;;;;;5041890;28;20434;-75
2022/01/19 14:19:44;;;;;;;1.30;1.20;;;19.00;40.20;;;;;;5046181;28;20968;-76
2022/01/19 14:22:13;;;;;;;2.77;1.40;;;19.00;40.20;;;;;;5041466;28;20533;-74
2022/01/19 14:24:44;;;;;;;2.10;1.40;;;19.00;40.10;;;;;;5041846;28;20455;-74
2022/01/19 14:27:25;;;;;;;1.87;1.43;;;19.00;40.10;;;;;;5041037;28;21013;-78